Time;durP1;ratioP1;P1;durP2;ratioP2;P2;SDS_P1;SDS_P2;PMS_P1;PMS_P2;Temp;Humidity;BMP_temperature;BMP_pressure;BME280_temperature;BME280_humidity;BME280_pressure;Samples;Min_cycle;Max_cycle;Signal;HPM_P1;HPM_P2
2021/03/13 00:00:58;;;;;;;17.85;3.30;;;8.10;92.00;;;;;;5065508;28;20024;-33
2021/03/13 00:03:23;;;;;;;15.90;3.50;;;8.10;91.90;;;;;;5064883;28;20075;-35
2021/03/13 00:05:49;;;;;;;9.50;2.75;;;8.10;91.90;;;;;;5064508;28;20601;-35
2021/03/13 00:08:15;;;;;;;10.73;3.22;;;8.10;92.00;;;;;;5064652;28;20465;-37
2021/03/13 00:10:42;;;;;;;11.90;3.35;;;8.10;92.00;;;;;;5064176;28;20583;-35
2021/03/13 00:13:08;;;;;;;9.35;3.05;;;8.10;92.00;;;;;;5064584;28;20037;-35
2021/03/13 00:15:34;;;;;;;11.60;2.80;;;8.10;92.30;;;;;;5064831;28;20036;-37
2021/03/13 00:18:01;;;;;;;17.83;3.30;;;8.10;92.00;;;;;;5044379;28;20063;-35
2021/03/13 00:20:28;;;;;;;14.90;3.20;;;8.10;92.10;;;;;;5058477;28;20443;-35
2021/03/13 00:22:55;;;;;;;12.13;3.33;;;8.10;92.00;;;;;;5064834;28;20021;-38
2021/03/13 00:25:22;;;;;;;11.18;2.90;;;8.10;92.10;;;;;;5064000;28;20029;-37
2021/03/13 00:27:48;;;;;;;15.27;2.80;;;8.10;92.10;;;;;;5064633;28;20067;-35
2021/03/13 00:30:27;;;;;;;13.68;2.63;;;8.10;92.10;;;;;;5064267;28;20040;-38
2021/03/13 00:32:56;;;;;;;11.05;3.03;;;8.10;92.20;;;;;;5063941;28;20036;-38
2021/03/13 00:35:22;;;;;;;11.02;2.50;;;8.10;92.20;;;;;;5064156;28;20324;-37
2021/03/13 00:37:49;;;;;;;13.32;2.67;;;8.10;92.20;;;;;;5064573;28;20111;-37
2021/03/13 00:40:16;;;;;;;13.57;2.60;;;8.00;92.30;;;;;;5063483;28;20024;-38
2021/03/13 00:42:43;;;;;;;14.38;2.72;;;8.00;92.40;;;;;;5063950;28;20388;-36
2021/03/13 00:45:11;;;;;;;6.80;2.08;;;8.00;92.30;;;;;;5064219;28;20032;-35
2021/03/13 00:47:36;;;;;;;7.68;2.22;;;8.00;92.40;;;;;;5063834;28;20048;-37
2021/03/13 00:50:04;;;;;;;14.15;2.60;;;8.00;92.40;;;;;;5063778;28;20082;-33
2021/03/13 00:52:30;;;;;;;14.77;2.35;;;8.00;92.40;;;;;;5063753;28;20035;-38
2021/03/13 00:54:56;;;;;;;8.50;2.30;;;8.00;92.40;;;;;;5064364;28;20395;-31
2021/03/13 00:57:25;;;;;;;5.85;1.80;;;8.10;92.40;;;;;;5064096;28;20055;-35
2021/03/13 00:59:50;;;;;;;11.00;2.45;;;8.10;92.40;;;;;;5064577;28;20043;-37
2021/03/13 01:02:16;;;;;;;7.40;2.72;;;8.10;92.40;;;;;;5063513;28;20025;-37
2021/03/13 01:04:41;;;;;;;10.18;2.22;;;8.10;92.40;;;;;;5063935;28;20086;-35
2021/03/13 01:07:07;;;;;;;11.75;2.40;;;8.10;92.40;;;;;;5063671;28;20033;-39
2021/03/13 01:09:39;;;;;;;8.25;2.80;;;8.10;92.50;;;;;;5063873;28;20044;-34
2021/03/13 01:12:05;;;;;;;11.50;2.75;;;8.10;92.50;;;;;;5063648;28;20008;-36
2021/03/13 01:14:31;;;;;;;16.17;2.60;;;8.00;92.50;;;;;;5063919;28;20036;-37
2021/03/13 01:16:56;;;;;;;10.48;2.35;;;8.10;92.60;;;;;;5063951;28;20016;-34
2021/03/13 01:19:22;;;;;;;15.52;3.08;;;8.00;92.70;;;;;;5063851;28;20038;-35
2021/03/13 01:21:50;;;;;;;8.23;2.40;;;8.00;92.90;;;;;;5063027;28;20028;-38
2021/03/13 01:24:16;;;;;;;12.07;2.65;;;8.00;93.00;;;;;;5064205;28;20025;-36
2021/03/13 01:26:41;;;;;;;13.43;3.15;;;8.00;93.30;;;;;;5063840;28;20387;-35
2021/03/13 01:29:07;;;;;;;8.13;2.42;;;7.90;93.70;;;;;;5063568;28;20035;-37
2021/03/13 01:31:32;;;;;;;10.93;2.70;;;7.90;94.00;;;;;;5064969;28;20322;-38
2021/03/13 01:33:58;;;;;;;11.20;3.38;;;7.80;94.30;;;;;;5067698;28;20027;-36
2021/03/13 01:36:24;;;;;;;11.10;3.15;;;7.80;94.80;;;;;;5067076;28;20097;-36
2021/03/13 01:38:50;;;;;;;11.52;2.78;;;7.70;94.90;;;;;;5067460;28;20028;-35
2021/03/13 01:41:15;;;;;;;7.55;2.40;;;7.70;95.10;;;;;;5067548;28;20028;-36
2021/03/13 01:43:41;;;;;;;7.03;2.30;;;7.60;95.10;;;;;;5067087;28;20017;-34
2021/03/13 01:46:07;;;;;;;10.80;2.53;;;7.60;95.40;;;;;;5067368;28;20028;-36
2021/03/13 01:48:36;;;;;;;10.27;2.75;;;7.60;95.60;;;;;;5066809;28;20037;-37
2021/03/13 01:51:03;;;;;;;11.55;2.78;;;7.50;95.80;;;;;;5067072;28;20048;-32
2021/03/13 01:53:29;;;;;;;15.45;3.03;;;7.50;95.80;;;;;;5067507;28;20138;-36
2021/03/13 01:55:55;;;;;;;11.15;3.20;;;7.50;96.00;;;;;;5067554;28;20073;-36
2021/03/13 01:58:20;;;;;;;10.52;3.40;;;7.50;96.30;;;;;;5066796;28;20050;-35
2021/03/13 02:00:46;;;;;;;12.02;3.05;;;7.40;96.60;;;;;;5067210;28;20031;-37
2021/03/13 02:03:11;;;;;;;7.07;2.65;;;7.40;96.80;;;;;;5066610;28;20112;-34
2021/03/13 02:05:44;;;;;;;8.32;2.67;;;7.40;96.80;;;;;;5066904;28;20456;-37
2021/03/13 02:08:39;;;;;;;8.85;2.83;;;7.40;97.10;;;;;;5067043;28;20123;-35
2021/03/13 02:11:23;;;;;;;6.45;2.83;;;7.30;97.20;;;;;;5066612;28;20074;-37
2021/03/13 02:14:02;;;;;;;5.68;2.38;;;7.30;97.20;;;;;;5066702;28;20363;-31
2021/03/13 02:16:42;;;;;;;8.73;2.83;;;7.30;97.20;;;;;;5067305;28;20722;-34
2021/03/13 02:19:34;;;;;;;10.25;3.15;;;7.30;97.50;;;;;;5066712;28;20036;-32
2021/03/13 02:22:03;;;;;;;7.40;2.17;;;7.20;97.60;;;;;;5067147;28;20035;-35
2021/03/13 02:24:28;;;;;;;8.75;2.80;;;7.20;97.50;;;;;;5066668;28;20270;-35
2021/03/13 02:27:05;;;;;;;6.13;2.47;;;7.20;97.50;;;;;;5067122;28;20506;-37
2021/03/13 02:29:50;;;;;;;9.23;2.80;;;7.20;97.60;;;;;;5066747;28;20036;-33
2021/03/13 02:32:54;;;;;;;6.68;2.78;;;7.20;97.60;;;;;;5066169;28;20468;-35
2021/03/13 02:35:34;;;;;;;9.30;2.60;;;7.20;97.60;;;;;;5065940;28;20083;-34
2021/03/13 02:38:08;;;;;;;4.93;2.30;;;7.20;97.70;;;;;;5066857;28;20407;-36
2021/03/13 02:40:36;;;;;;;7.97;2.47;;;7.20;97.60;;;;;;5065728;28;20107;-37
2021/03/13 02:43:07;;;;;;;6.65;2.33;;;7.20;97.60;;;;;;5066172;28;20606;-38
2021/03/13 02:45:37;;;;;;;5.10;2.50;;;7.20;97.90;;;;;;5066220;28;20024;-35
2021/03/13 02:48:06;;;;;;;8.15;3.25;;;7.20;98.00;;;;;;5046529;28;20024;-36
2021/03/13 02:50:36;;;;;;;5.15;2.90;;;7.20;97.90;;;;;;5060922;28;20109;-36
2021/03/13 02:53:04;;;;;;;5.22;2.70;;;7.20;98.30;;;;;;5065809;28;20101;-36
2021/03/13 02:55:30;;;;;;;5.35;2.90;;;7.20;98.20;;;;;;5065946;28;20095;-36
2021/03/13 02:57:58;;;;;;;6.50;2.97;;;7.10;98.30;;;;;;5066578;28;20060;-33
2021/03/13 03:00:26;;;;;;;6.32;2.80;;;7.10;98.30;;;;;;5064884;28;20048;-38
2021/03/13 03:02:55;;;;;;;6.07;2.63;;;7.10;98.40;;;;;;5066214;28;20178;-36
2021/03/13 03:05:24;;;;;;;4.53;2.50;;;7.20;98.30;;;;;;5065783;28;20193;-37
2021/03/13 03:07:53;;;;;;;6.63;2.90;;;7.20;98.20;;;;;;5065296;28;20077;-38
2021/03/13 03:10:20;;;;;;;7.00;3.53;;;7.20;98.50;;;;;;5065883;28;20143;-37
2021/03/13 03:12:48;;;;;;;5.05;3.03;;;7.10;98.60;;;;;;5065773;28;20417;-38
2021/03/13 03:15:16;;;;;;;4.80;3.30;;;7.20;98.50;;;;;;5065259;28;20048;-35
2021/03/13 03:17:42;;;;;;;8.73;3.90;;;7.10;98.60;;;;;;5065997;28;20027;-37
2021/03/13 03:20:10;;;;;;;8.07;3.60;;;7.20;98.80;;;;;;5065399;28;20046;-35
2021/03/13 03:22:37;;;;;;;6.20;3.60;;;7.20;98.90;;;;;;5065027;28;20438;-38
2021/03/13 03:25:07;;;;;;;7.50;3.85;;;7.10;98.80;;;;;;5065478;28;20039;-36
2021/03/13 03:27:33;;;;;;;8.80;3.70;;;7.10;98.90;;;;;;5065482;28;20130;-36
2021/03/13 03:29:59;;;;;;;8.18;3.83;;;7.20;99.10;;;;;;5064908;28;20532;-33
2021/03/13 03:32:27;;;;;;;7.28;3.42;;;7.20;99.20;;;;;;5065310;28;20162;-34
2021/03/13 03:34:53;;;;;;;6.97;3.53;;;7.20;99.00;;;;;;5064692;28;20029;-37
2021/03/13 03:37:19;;;;;;;5.20;3.35;;;7.20;99.00;;;;;;5064626;28;20102;-36
2021/03/13 03:39:44;;;;;;;5.70;3.20;;;7.20;99.20;;;;;;5065368;28;20115;-38
2021/03/13 03:42:12;;;;;;;7.70;3.35;;;7.20;99.20;;;;;;5064517;28;20037;-36
2021/03/13 03:44:45;;;;;;;5.50;2.97;;;7.20;99.30;;;;;;5065119;28;20140;-35
2021/03/13 03:47:11;;;;;;;7.28;3.88;;;7.20;99.30;;;;;;5064718;28;20048;-37
2021/03/13 03:49:40;;;;;;;8.45;3.53;;;7.20;99.30;;;;;;5064575;28;20064;-35
2021/03/13 03:52:06;;;;;;;8.88;3.40;;;7.30;99.40;;;;;;5064609;28;20024;-35
2021/03/13 03:54:36;;;;;;;5.43;2.65;;;7.20;99.40;;;;;;5064240;28;20028;-34
2021/03/13 03:57:06;;;;;;;8.80;2.80;;;7.30;99.40;;;;;;5064070;28;20089;-33
2021/03/13 03:59:33;;;;;;;9.23;3.72;;;7.30;99.40;;;;;;5064664;28;20031;-33
2021/03/13 04:02:03;;;;;;;5.95;2.72;;;7.30;99.50;;;;;;5064790;28;20436;-37
2021/03/13 04:04:30;;;;;;;6.18;2.78;;;7.30;99.50;;;;;;5064512;28;20089;-34
2021/03/13 04:06:57;;;;;;;5.78;3.00;;;7.30;99.50;;;;;;5065013;28;20025;-35
2021/03/13 04:09:26;;;;;;;5.65;2.90;;;7.30;99.60;;;;;;5064832;28;20119;-36
2021/03/13 04:11:54;;;;;;;7.68;2.60;;;7.30;99.40;;;;;;5064191;28;20098;-34
2021/03/13 04:14:21;;;;;;;8.10;2.88;;;7.40;99.50;;;;;;5064578;28;20027;-37
2021/03/13 04:16:47;;;;;;;8.95;2.63;;;7.40;99.50;;;;;;5064294;28;20547;-35
2021/03/13 04:19:13;;;;;;;9.90;3.03;;;7.40;99.40;;;;;;5064062;28;20029;-34
2021/03/13 04:21:39;;;;;;;5.90;2.40;;;7.40;99.60;;;;;;5064714;28;20032;-38
2021/03/13 04:24:05;;;;;;;6.30;3.03;;;7.40;99.40;;;;;;5063100;28;20036;-37
2021/03/13 04:26:33;;;;;;;7.43;2.63;;;7.40;99.40;;;;;;5064596;28;20043;-37
2021/03/13 04:28:58;;;;;;;7.28;3.20;;;7.50;99.50;;;;;;5064312;28;20593;-38
2021/03/13 04:31:28;;;;;;;6.95;2.67;;;7.50;99.50;;;;;;5063834;28;20165;-37
2021/03/13 04:33:56;;;;;;;8.15;3.22;;;7.50;99.50;;;;;;5064818;28;20016;-37
2021/03/13 04:36:22;;;;;;;6.45;2.42;;;7.50;99.50;;;;;;5064318;28;20033;-35
2021/03/13 04:38:48;;;;;;;5.53;2.58;;;7.50;99.50;;;;;;5063607;28;20062;-37
2021/03/13 04:41:14;;;;;;;4.38;2.40;;;7.50;99.60;;;;;;5064644;28;20028;-37
2021/03/13 04:43:40;;;;;;;6.53;2.50;;;7.50;99.60;;;;;;5063894;28;20528;-36
2021/03/13 04:46:06;;;;;;;6.53;2.75;;;7.50;99.60;;;;;;5063567;28;20064;-36
2021/03/13 04:48:33;;;;;;;6.70;2.78;;;7.40;99.60;;;;;;5063882;28;20024;-32
2021/03/13 04:51:00;;;;;;;5.47;2.80;;;7.50;99.60;;;;;;5063991;28;20048;-35
2021/03/13 04:53:26;;;;;;;7.90;2.92;;;7.50;99.60;;;;;;5063956;28;20392;-35
2021/03/13 04:55:55;;;;;;;7.82;2.58;;;7.50;99.60;;;;;;5064430;28;20048;-37
2021/03/13 04:58:21;;;;;;;4.82;2.45;;;7.50;99.50;;;;;;5063881;28;20130;-34
2021/03/13 05:00:47;;;;;;;7.78;2.67;;;7.50;99.50;;;;;;5063931;28;20383;-35
2021/03/13 05:03:13;;;;;;;5.45;2.58;;;7.50;99.50;;;;;;5063925;28;20437;-36
2021/03/13 05:05:39;;;;;;;8.65;3.42;;;7.60;99.40;;;;;;5064286;28;20173;-36
2021/03/13 05:08:05;;;;;;;4.97;2.65;;;7.60;99.40;;;;;;5068009;28;20127;-33
2021/03/13 05:10:30;;;;;;;7.68;2.72;;;7.60;99.40;;;;;;5067675;28;20142;-38
2021/03/13 05:12:56;;;;;;;4.95;2.22;;;7.60;99.40;;;;;;5068251;28;20058;-37
2021/03/13 05:15:23;;;;;;;5.57;2.72;;;7.60;99.40;;;;;;5067979;28;20356;-33
2021/03/13 05:17:49;;;;;;;5.85;2.80;;;7.70;99.40;;;;;;5067780;28;20031;-37
2021/03/13 05:20:15;;;;;;;8.73;2.83;;;7.70;99.40;;;;;;5067830;28;20025;-35
2021/03/13 05:22:40;;;;;;;6.22;2.53;;;7.70;99.40;;;;;;5067934;28;20761;-37
2021/03/13 05:25:11;;;;;;;6.88;2.53;;;7.70;99.50;;;;;;5067502;28;20111;-36
2021/03/13 05:27:39;;;;;;;5.57;2.30;;;7.60;99.50;;;;;;5067763;28;20033;-37
2021/03/13 05:30:07;;;;;;;7.40;2.53;;;7.70;99.60;;;;;;5067729;28;20033;-38
2021/03/13 05:32:32;;;;;;;6.30;2.53;;;7.70;99.70;;;;;;5067558;28;20132;-38
2021/03/13 05:34:59;;;;;;;6.10;2.05;;;7.70;99.80;;;;;;5067798;28;20096;-33
2021/03/13 05:37:24;;;;;;;4.50;2.22;;;7.70;99.90;;;;;;5067638;28;20024;-35
2021/03/13 05:39:50;;;;;;;7.13;2.58;;;7.70;99.90;;;;;;5067531;28;20067;-34
2021/03/13 05:42:16;;;;;;;4.75;2.00;;;7.60;99.90;;;;;;5067438;28;20537;-36
2021/03/13 05:44:43;;;;;;;4.60;1.90;;;7.70;99.90;;;;;;5067527;28;20048;-33
2021/03/13 05:47:09;;;;;;;6.07;2.00;;;7.70;99.90;;;;;;5067153;28;20024;-37
2021/03/13 05:49:38;;;;;;;3.05;1.80;;;7.60;99.90;;;;;;5067390;28;20440;-37
2021/03/13 05:52:07;;;;;;;6.22;2.20;;;7.70;99.90;;;;;;5067195;28;20020;-37
2021/03/13 05:54:33;;;;;;;8.38;2.10;;;7.60;99.90;;;;;;5067628;28;20478;-37
2021/03/13 05:56:59;;;;;;;7.60;2.22;;;7.70;99.90;;;;;;5067729;28;20029;-35
2021/03/13 05:59:26;;;;;;;6.85;2.53;;;7.70;99.90;;;;;;5067806;28;20198;-36
2021/03/13 06:01:52;;;;;;;4.53;1.75;;;7.70;99.90;;;;;;5067235;28;20507;-38
2021/03/13 06:04:18;;;;;;;6.43;2.05;;;7.70;99.90;;;;;;5067110;28;20016;-38
2021/03/13 06:06:45;;;;;;;3.17;1.58;;;7.70;99.90;;;;;;5067127;28;20369;-35
2021/03/13 06:09:12;;;;;;;4.90;1.80;;;7.70;99.90;;;;;;5067223;28;20028;-38
2021/03/13 06:11:37;;;;;;;3.50;1.73;;;7.70;99.90;;;;;;5066751;28;20098;-36
2021/03/13 06:14:03;;;;;;;6.70;1.80;;;7.70;99.90;;;;;;5067984;28;20464;-37
2021/03/13 06:16:32;;;;;;;5.80;1.92;;;7.70;99.90;;;;;;5067056;28;20081;-38
2021/03/13 06:18:58;;;;;;;6.50;1.63;;;7.70;99.90;;;;;;5067330;28;20024;-38
2021/03/13 06:21:35;;;;;;;3.15;0.90;;;7.70;99.90;;;;;;5067518;28;20020;-36
2021/03/13 06:24:02;;;;;;;3.08;0.90;;;7.50;99.70;;;;;;5057360;28;20020;-35
2021/03/13 06:26:29;;;;;;;4.97;0.90;;;7.40;99.50;;;;;;5067894;28;20025;-38
2021/03/13 06:28:56;;;;;;;1.25;0.70;;;7.20;99.30;;;;;;5067328;28;20487;-35
2021/03/13 06:31:31;;;;;;;2.33;0.60;;;7.10;99.40;;;;;;5066710;28;20034;-37
2021/03/13 06:33:57;;;;;;;2.30;0.60;;;6.90;99.20;;;;;;5067192;28;20429;-36
2021/03/13 06:36:24;;;;;;;1.48;0.60;;;6.80;99.00;;;;;;5066877;28;20056;-36
2021/03/13 06:38:51;;;;;;;2.55;1.20;;;6.80;99.30;;;;;;5067019;28;20123;-36
2021/03/13 06:41:24;;;;;;;2.55;0.77;;;6.70;99.40;;;;;;5067083;28;20384;-36
2021/03/13 06:43:51;;;;;;;2.00;1.08;;;6.80;99.60;;;;;;5066437;28;20059;-38
2021/03/13 06:46:19;;;;;;;4.35;1.30;;;6.80;99.90;;;;;;5066864;28;20130;-38
2021/03/13 06:48:51;;;;;;;3.38;1.35;;;6.90;99.80;;;;;;5066373;28;20024;-38
2021/03/13 06:51:29;;;;;;;2.75;1.10;;;6.90;99.90;;;;;;5066669;28;20480;-32
2021/03/13 06:53:59;;;;;;;2.25;1.15;;;6.90;99.80;;;;;;5066330;28;20024;-37
2021/03/13 06:56:26;;;;;;;2.40;1.10;;;7.00;99.60;;;;;;5067191;28;20128;-38
2021/03/13 06:58:52;;;;;;;4.90;1.10;;;7.00;99.30;;;;;;5065976;28;20182;-35
2021/03/13 07:01:29;;;;;;;5.32;1.35;;;7.00;98.80;;;;;;5066799;28;20512;-38
2021/03/13 07:03:58;;;;;;;3.65;1.42;;;7.00;98.50;;;;;;5066413;28;20066;-34
2021/03/13 07:06:24;;;;;;;4.03;1.10;;;7.00;98.00;;;;;;5065660;28;20025;-36
2021/03/13 07:08:54;;;;;;;6.50;1.17;;;7.00;97.80;;;;;;5066550;28;20035;-34
2021/03/13 07:11:24;;;;;;;5.07;1.58;;;7.00;97.30;;;;;;5066188;28;20421;-38
2021/03/13 07:13:55;;;;;;;6.57;1.35;;;7.00;96.60;;;;;;5065285;28;20037;-35
2021/03/13 07:16:36;;;;;;;3.78;1.30;;;7.00;96.80;;;;;;5066237;28;20060;-36
2021/03/13 07:19:06;;;;;;;6.05;1.35;;;7.00;96.30;;;;;;5066246;28;20020;-37
2021/03/13 07:21:37;;;;;;;4.85;1.05;;;7.00;96.20;;;;;;5065529;28;20764;-36
2021/03/13 07:24:07;;;;;;;5.55;1.30;;;7.00;96.10;;;;;;5066113;28;20380;-34
2021/03/13 07:26:44;;;;;;;3.33;1.25;;;7.00;96.10;;;;;;5066147;28;20058;-37
2021/03/13 07:29:12;;;;;;;5.93;1.65;;;7.00;95.90;;;;;;5064119;28;20033;-36
2021/03/13 07:31:40;;;;;;;5.05;1.35;;;7.00;95.90;;;;;;5065661;28;20350;-35
2021/03/13 07:34:20;;;;;;;6.80;1.45;;;7.00;95.60;;;;;;5065026;28;20051;-35
2021/03/13 07:36:52;;;;;;;9.30;1.80;;;7.00;95.30;;;;;;5065769;28;20031;-38
2021/03/13 07:39:20;;;;;;;9.40;1.60;;;7.10;95.40;;;;;;5065089;28;20024;-35
2021/03/13 07:42:11;;;;;;;7.90;2.00;;;7.10;95.20;;;;;;5065079;28;20306;-36
2021/03/13 07:44:38;;;;;;;9.30;1.80;;;7.10;95.00;;;;;;5065800;28;20028;-35
2021/03/13 07:47:05;;;;;;;8.85;2.15;;;7.20;94.50;;;;;;5065068;28;20028;-35
2021/03/13 07:49:34;;;;;;;6.97;1.90;;;7.20;94.60;;;;;;5064943;28;20040;-33
2021/03/13 07:52:03;;;;;;;6.10;1.65;;;7.30;94.50;;;;;;5066194;28;20125;-38
2021/03/13 07:54:31;;;;;;;12.80;2.30;;;7.30;94.00;;;;;;5065473;28;20458;-40
2021/03/13 07:56:59;;;;;;;15.57;2.85;;;7.30;93.90;;;;;;5065251;28;20411;-38
2021/03/13 07:59:47;;;;;;;11.88;2.20;;;7.30;93.90;;;;;;5065007;28;20047;-36
2021/03/13 08:02:28;;;;;;;15.43;3.08;;;7.30;93.80;;;;;;5054069;28;20067;-37
2021/03/13 08:04:58;;;;;;;9.48;2.08;;;7.40;93.60;;;;;;5064896;28;20029;-35
2021/03/13 08:07:25;;;;;;;14.35;3.17;;;7.50;93.60;;;;;;5054853;28;20273;-36
2021/03/13 08:09:51;;;;;;;16.67;3.08;;;7.60;93.60;;;;;;5064142;28;20021;-38
2021/03/13 08:12:42;;;;;;;9.57;2.17;;;7.70;92.70;;;;;;5062077;28;20487;-35
2021/03/13 08:15:29;;;;;;;14.65;2.80;;;7.80;92.70;;;;;;5064794;28;20023;-34
2021/03/13 08:17:55;;;;;;;16.27;2.67;;;7.80;92.10;;;;;;5055836;28;20033;-35
2021/03/13 08:20:32;;;;;;;15.57;2.70;;;7.90;92.60;;;;;;5064262;28;20038;-34
2021/03/13 08:23:13;;;;;;;19.95;2.92;;;7.90;92.80;;;;;;5055250;28;20058;-34
2021/03/13 08:25:58;;;;;;;12.40;2.40;;;8.10;92.80;;;;;;5064953;28;20104;-36
2021/03/13 08:28:54;;;;;;;18.02;2.85;;;8.30;92.70;;;;;;5064694;28;20055;-38
2021/03/13 08:31:44;;;;;;;10.68;3.05;;;8.40;91.90;;;;;;5064130;28;20498;-34
2021/03/13 08:34:13;;;;;;;9.82;2.35;;;8.40;92.00;;;;;;5064592;28;20062;-37
2021/03/13 08:36:46;;;;;;;13.30;3.00;;;8.40;91.70;;;;;;5064643;28;20029;-32
2021/03/13 08:39:20;;;;;;;14.00;2.40;;;8.20;92.30;;;;;;5064327;28;20024;-33
2021/03/13 08:41:55;;;;;;;13.38;2.67;;;8.00;93.30;;;;;;5064042;28;20024;-37
2021/03/13 08:44:21;;;;;;;18.63;2.65;;;7.90;94.30;;;;;;5064633;28;20025;-37
2021/03/13 08:46:49;;;;;;;15.75;2.65;;;7.70;94.70;;;;;;5064785;28;20036;-36
2021/03/13 08:49:20;;;;;;;13.10;2.53;;;7.60;94.80;;;;;;5064929;28;20472;-35
2021/03/13 08:51:46;;;;;;;11.20;3.00;;;7.60;95.10;;;;;;5063757;28;20486;-38
2021/03/13 08:54:12;;;;;;;14.68;2.50;;;7.60;95.00;;;;;;5064877;28;20132;-32
2021/03/13 08:56:40;;;;;;;13.93;3.40;;;7.60;95.10;;;;;;5064577;28;20685;-36
2021/03/13 08:59:12;;;;;;;12.00;2.53;;;7.70;94.80;;;;;;5053198;28;20032;-38
2021/03/13 09:01:39;;;;;;;14.13;2.95;;;7.70;94.60;;;;;;5064769;28;20396;-33
2021/03/13 09:04:06;;;;;;;12.60;3.08;;;7.70;94.10;;;;;;5064529;28;20024;-37
2021/03/13 09:06:31;;;;;;;14.10;2.78;;;7.70;94.10;;;;;;5063937;28;20413;-37
2021/03/13 09:09:11;;;;;;;16.30;3.78;;;7.80;94.20;;;;;;5065132;28;20089;-36
2021/03/13 09:11:39;;;;;;;16.75;3.22;;;7.80;94.20;;;;;;5064456;28;20472;-38
2021/03/13 09:14:09;;;;;;;15.20;2.88;;;7.80;93.90;;;;;;5064010;28;20116;-35
2021/03/13 09:16:40;;;;;;;13.35;3.03;;;7.90;93.80;;;;;;5064898;28;20028;-32
2021/03/13 09:19:12;;;;;;;16.23;3.40;;;7.90;93.30;;;;;;5064355;28;20044;-36
2021/03/13 09:21:47;;;;;;;20.00;3.30;;;7.90;93.10;;;;;;5064448;28;20574;-36
2021/03/13 09:24:31;;;;;;;18.58;3.22;;;8.00;93.10;;;;;;5064056;28;20032;-38
2021/03/13 09:26:59;;;;;;;23.52;3.92;;;8.10;92.50;;;;;;5065129;28;20135;-36
2021/03/13 09:29:29;;;;;;;20.10;3.67;;;8.10;91.80;;;;;;5064088;28;20024;-33
2021/03/13 09:32:03;;;;;;;14.57;4.05;;;8.20;91.60;;;;;;5064709;28;20028;-37
2021/03/13 09:34:31;;;;;;;18.80;4.03;;;8.20;91.50;;;;;;5064280;28;20021;-37
2021/03/13 09:36:57;;;;;;;15.85;3.42;;;8.20;92.10;;;;;;5064686;28;20024;-41
2021/03/13 09:39:28;;;;;;;17.33;3.85;;;8.30;92.10;;;;;;5064087;28;20039;-38
2021/03/13 09:42:17;;;;;;;23.55;3.40;;;8.30;92.80;;;;;;5064269;28;20024;-34
2021/03/13 09:44:50;;;;;;;23.95;4.35;;;8.30;92.70;;;;;;5064540;28;20033;-37
2021/03/13 09:47:20;;;;;;;20.42;4.05;;;8.20;92.50;;;;;;5064435;28;20151;-36
2021/03/13 09:49:52;;;;;;;21.00;3.97;;;8.20;92.30;;;;;;5063479;28;20099;-34
2021/03/13 09:52:32;;;;;;;20.97;4.07;;;8.30;92.50;;;;;;5065461;28;20086;-37
2021/03/13 09:55:05;;;;;;;15.18;3.42;;;8.30;92.00;;;;;;5067698;28;20370;-37
2021/03/13 09:57:31;;;;;;;16.30;3.63;;;8.40;91.50;;;;;;5067914;28;20016;-37
2021/03/13 09:59:57;;;;;;;11.93;3.42;;;8.40;91.50;;;;;;5068325;28;20063;-37
2021/03/13 10:02:23;;;;;;;19.35;4.18;;;8.40;91.50;;;;;;5067259;28;20064;-33
2021/03/13 10:04:53;;;;;;;15.10;3.38;;;8.30;91.80;;;;;;5067351;28;20066;-37
2021/03/13 10:07:20;;;;;;;13.30;2.60;;;8.30;92.00;;;;;;5068149;28;20021;-40
2021/03/13 10:09:54;;;;;;;16.05;3.58;;;8.20;92.00;;;;;;5067077;28;20028;-36
2021/03/13 10:12:31;;;;;;;12.55;3.08;;;8.00;93.60;;;;;;5067660;28;20757;-37
2021/03/13 10:15:17;;;;;;;14.15;2.90;;;7.60;93.40;;;;;;5068069;28;20086;-35
2021/03/13 10:18:02;;;;;;;16.95;3.80;;;7.20;94.70;;;;;;5067041;28;20021;-33
2021/03/13 10:20:32;;;;;;;18.33;4.20;;;7.00;95.30;;;;;;5067623;28;20027;-38
2021/03/13 10:23:09;;;;;;;20.08;4.50;;;6.90;95.70;;;;;;5067379;28;20037;-37
2021/03/13 10:25:36;;;;;;;15.68;4.00;;;6.80;96.10;;;;;;5067083;28;20028;-37
2021/03/13 10:28:03;;;;;;;21.98;4.15;;;6.80;96.30;;;;;;5067623;28;20020;-39
2021/03/13 10:30:29;;;;;;;18.10;4.10;;;6.90;96.60;;;;;;5067020;28;20065;-35
2021/03/13 10:32:55;;;;;;;17.15;4.38;;;7.00;96.70;;;;;;5067375;28;20049;-35
2021/03/13 10:35:26;;;;;;;17.23;3.65;;;7.10;96.80;;;;;;5066917;28;20021;-32
2021/03/13 10:37:53;;;;;;;19.05;3.90;;;7.20;96.80;;;;;;5066940;28;20021;-37
2021/03/13 10:40:39;;;;;;;26.45;5.05;;;7.20;96.80;;;;;;5066660;28;20038;-38
2021/03/13 10:43:25;;;;;;;21.60;4.32;;;7.30;96.60;;;;;;5067108;28;20076;-37
2021/03/13 10:45:56;;;;;;;19.15;3.20;;;7.30;95.60;;;;;;5066645;28;20028;-34
2021/03/13 10:48:26;;;;;;;19.15;3.50;;;7.30;94.80;;;;;;5066656;28;20032;-36
2021/03/13 10:50:55;;;;;;;17.55;3.70;;;7.30;95.10;;;;;;5065893;28;20067;-38
2021/03/13 10:53:36;;;;;;;23.38;4.90;;;7.20;94.90;;;;;;5066625;28;20547;-34
2021/03/13 10:56:05;;;;;;;20.85;4.05;;;7.30;95.00;;;;;;5066992;28;20090;-38
2021/03/13 10:58:33;;;;;;;22.75;4.63;;;7.40;94.70;;;;;;5066319;28;20074;-37
2021/03/13 11:01:00;;;;;;;22.58;3.78;;;7.60;94.20;;;;;;5062925;28;20033;-37
2021/03/13 11:03:26;;;;;;;20.30;3.90;;;7.70;93.90;;;;;;5066335;28;20051;-37
2021/03/13 11:05:52;;;;;;;19.65;4.45;;;7.80;93.40;;;;;;5066158;28;20472;-38
2021/03/13 11:08:23;;;;;;;25.05;4.75;;;7.90;93.20;;;;;;5066648;28;20055;-37
2021/03/13 11:10:50;;;;;;;18.42;3.95;;;8.10;93.20;;;;;;5066496;28;20032;-36
2021/03/13 11:13:16;;;;;;;26.27;4.50;;;8.30;93.20;;;;;;5066055;28;20027;-37
2021/03/13 11:15:42;;;;;;;20.15;3.88;;;8.40;92.20;;;;;;5065540;28;20392;-36
2021/03/13 11:18:08;;;;;;;22.95;4.55;;;8.60;91.90;;;;;;5062745;28;20027;-39
2021/03/13 11:20:34;;;;;;;24.30;4.60;;;8.70;91.10;;;;;;5064850;28;20802;-38
2021/03/13 11:23:00;;;;;;;17.85;3.83;;;9.00;91.20;;;;;;5065408;28;20013;-37
2021/03/13 11:25:27;;;;;;;26.25;5.15;;;9.10;91.20;;;;;;5065539;28;20047;-36
2021/03/13 11:27:53;;;;;;;20.00;3.72;;;9.40;91.00;;;;;;5063536;28;20039;-37
2021/03/13 11:30:19;;;;;;;23.30;4.95;;;9.50;90.10;;;;;;5065143;28;20767;-33
2021/03/13 11:32:45;;;;;;;15.77;3.08;;;9.70;90.10;;;;;;5065108;28;20460;-35
2021/03/13 11:35:12;;;;;;;18.67;3.22;;;9.70;86.20;;;;;;5065176;28;20035;-37
2021/03/13 11:37:38;;;;;;;18.08;3.58;;;9.60;83.20;;;;;;5066071;28;20031;-33
2021/03/13 11:40:08;;;;;;;17.58;3.20;;;9.50;85.10;;;;;;5065646;28;20032;-38
2021/03/13 11:42:34;;;;;;;12.05;3.15;;;9.40;87.50;;;;;;5065789;28;20081;-35
2021/03/13 11:45:00;;;;;;;18.77;3.63;;;9.40;89.10;;;;;;5066079;28;20028;-38
2021/03/13 11:47:27;;;;;;;17.38;3.53;;;9.40;88.90;;;;;;5065600;28;20020;-39
2021/03/13 11:49:54;;;;;;;12.27;2.63;;;9.50;88.70;;;;;;5065295;28;20033;-38
2021/03/13 11:52:20;;;;;;;14.70;3.08;;;9.80;87.10;;;;;;5065375;28;20456;-35
2021/03/13 11:54:48;;;;;;;14.02;2.80;;;10.00;87.80;;;;;;5065381;28;20445;-36
2021/03/13 11:57:14;;;;;;;12.40;3.47;;;10.20;87.40;;;;;;5065784;28;20063;-38
2021/03/13 11:59:40;;;;;;;18.08;3.60;;;10.20;86.80;;;;;;5065417;28;20632;-38
2021/03/13 12:02:06;;;;;;;13.75;3.30;;;10.30;87.10;;;;;;5065216;28;20039;-35
2021/03/13 12:04:31;;;;;;;14.20;2.85;;;10.30;87.60;;;;;;5065357;28;20016;-36
2021/03/13 12:06:57;;;;;;;13.70;2.88;;;10.20;86.00;;;;;;5065786;28;20507;-36
2021/03/13 12:09:22;;;;;;;18.27;3.17;;;10.20;87.40;;;;;;5064473;28;20032;-36
2021/03/13 12:11:48;;;;;;;20.17;3.53;;;10.30;86.70;;;;;;5065700;28;20392;-31
2021/03/13 12:14:14;;;;;;;13.63;2.88;;;10.30;87.00;;;;;;5065210;28;20048;-36
2021/03/13 12:16:42;;;;;;;15.90;3.70;;;10.20;86.00;;;;;;5064326;28;20043;-36
2021/03/13 12:19:08;;;;;;;18.90;3.30;;;10.10;85.70;;;;;;5065658;28;20028;-35
2021/03/13 12:21:34;;;;;;;15.15;2.55;;;9.90;88.10;;;;;;5065445;28;20020;-35
2021/03/13 12:24:00;;;;;;;14.00;3.00;;;9.60;88.10;;;;;;5065010;28;20038;-38
2021/03/13 12:26:26;;;;;;;12.88;2.10;;;9.20;90.90;;;;;;5065364;28;20111;-38
2021/03/13 12:28:52;;;;;;;11.30;2.45;;;8.80;91.00;;;;;;5065304;28;20020;-37
2021/03/13 12:31:18;;;;;;;9.13;1.70;;;8.40;92.10;;;;;;5065045;28;20036;-36
2021/03/13 12:33:44;;;;;;;8.75;1.90;;;8.10;92.10;;;;;;5065496;28;20024;-38
2021/03/13 12:36:10;;;;;;;6.78;1.60;;;8.00;91.80;;;;;;5065487;28;20033;-37
2021/03/13 12:38:36;;;;;;;10.48;1.88;;;7.90;92.00;;;;;;5064625;28;20120;-35
2021/03/13 12:41:04;;;;;;;12.25;2.50;;;7.90;92.30;;;;;;5065489;28;20039;-35
2021/03/13 12:43:30;;;;;;;13.90;2.95;;;7.80;92.30;;;;;;5064936;28;20039;-38
2021/03/13 12:45:55;;;;;;;9.02;2.22;;;7.90;92.70;;;;;;5065163;28;20019;-36
2021/03/13 12:48:21;;;;;;;11.20;2.22;;;8.00;92.70;;;;;;5065465;28;20036;-39
2021/03/13 12:50:47;;;;;;;11.27;2.05;;;8.10;92.30;;;;;;5060769;28;20426;-38
2021/03/13 12:53:12;;;;;;;14.38;2.83;;;8.40;92.20;;;;;;5064797;28;20024;-38
2021/03/13 12:55:38;;;;;;;7.47;1.98;;;8.50;92.60;;;;;;5064994;28;20074;-37
2021/03/13 12:58:04;;;;;;;10.10;2.55;;;8.60;92.60;;;;;;5063476;28;20421;-33
2021/03/13 13:00:29;;;;;;;11.68;2.28;;;8.70;91.80;;;;;;5065016;28;20519;-36
2021/03/13 13:02:55;;;;;;;6.70;1.60;;;8.70;91.10;;;;;;5064308;28;20013;-34